^^
Meteo Knjazevac Station Historical Data
Daily Summary for September 19, 2021 Units:  Both    English   Metric
Daily Weekly Monthly Yearly Custom
  High: Low: Average:
Temperature: 50.4 °F /  10.2 °C 46.2 °F /  7.9 °C 47.7 °F /  8.7 °C
Dew Point: 45.7 °F /  7.6 °C 43.7 °F /  6.5 °C 44.4 °F /  6.9 °C
Humidity: 93% 84% 89%
Wind Speed: 2mph /  3.2km/h - 0.7mph /  1.1km/h
Wind Gust: 5mph /  8km/h - -
Wind- - West
Pressure: 30.01 in /  1016.1 hPa 29.99 in /  1015.5 hPa -
Precipitation: 0.00 in /  0 mm    
Historical Graphs
 
 
Tabular Data for September 19, 2021
Time Temperature Dew Point Pressure Wind Wind Speed Wind Gust Humidity Rainfall Rate (Hourly) solar Conditions
00:00 50.4 °F /  10.2 °C 45.7 °F /  7.6 °C 30.01in /  1016.1hPa North 1mph /  1.6km/h 2mph /  3.2km/h 84% 0.00in /  0mm 0 W/m2
00:10 49.8 °F /  9.9 °C 45.2 °F /  7.3 °C 30.01in /  1016.1hPa Calm   2mph /  3.2km/h 84% 0.00in /  0mm 0 W/m2
00:20 49.6 °F /  9.8 °C 45.3 °F /  7.4 °C 30.01in /  1016.1hPa Calm   2mph /  3.2km/h 85% 0.00in /  0mm 0 W/m2
00:30 49.1 °F /  9.5 °C 44.8 °F /  7.1 °C 30.00in /  1015.8hPa North 1mph /  1.6km/h 4mph /  6.4km/h 85% 0.00in /  0mm 0 W/m2
00:40 48.6 °F /  9.2 °C 44.6 °F /  7 °C 30.00in /  1015.8hPa WNW 1mph /  1.6km/h 3mph /  4.8km/h 86% 0.00in /  0mm 0 W/m2
00:50 48.6 °F /  9.2 °C 44.6 °F /  7 °C 30.00in /  1015.8hPa Calm   2mph /  3.2km/h 86% 0.00in /  0mm 0 W/m2
01:00 48.1 °F /  8.9 °C 44.1 °F /  6.7 °C 30.01in /  1016.1hPa Calm   2mph /  3.2km/h 86% 0.00in /  0mm 0 W/m2
01:10 47.9 °F /  8.8 °C 44.2 °F /  6.8 °C 30.01in /  1016.1hPa Calm   4mph /  6.4km/h 87% 0.00in /  0mm 0 W/m2
01:20 47.8 °F /  8.8 °C 44.5 °F /  6.9 °C 30.01in /  1016.1hPa WSW 1mph /  1.6km/h 5mph /  8km/h 88% 0.00in /  0mm 0 W/m2
01:30 47.5 °F /  8.6 °C 44.1 °F /  6.7 °C 30.01in /  1016.1hPa Calm   3mph /  4.8km/h 88% 0.00in /  0mm 0 W/m2
01:40 47.3 °F /  8.5 °C 44.2 °F /  6.8 °C 30.00in /  1015.8hPa Calm   3mph /  4.8km/h 89% 0.00in /  0mm 0 W/m2
01:50 47.3 °F /  8.5 °C 44.2 °F /  6.8 °C 30.00in /  1015.8hPa Calm   2mph /  3.2km/h 89% 0.00in /  0mm 0 W/m2
02:00 47.3 °F /  8.5 °C 44.2 °F /  6.8 °C 30.00in /  1015.8hPa WNW 1mph /  1.6km/h 2mph /  3.2km/h 89% 0.00in /  0mm 0 W/m2
02:10 47.3 °F /  8.5 °C 44.5 °F /  6.9 °C 30.00in /  1015.8hPa NNW 1mph /  1.6km/h 3mph /  4.8km/h 90% 0.00in /  0mm 0 W/m2
02:20 47.4 °F /  8.6 °C 44.7 °F /  7.1 °C 30.00in /  1015.8hPa NW 1mph /  1.6km/h 4mph /  6.4km/h 90% 0.00in /  0mm 0 W/m2
02:30 47.1 °F /  8.4 °C 44.3 °F /  6.8 °C 30.00in /  1015.8hPa WNW 1mph /  1.6km/h 3mph /  4.8km/h 90% 0.00in /  0mm 0 W/m2
02:40 46.9 °F /  8.3 °C 44.4 °F /  6.9 °C 30.00in /  1015.8hPa WNW 2mph /  3.2km/h 4mph /  6.4km/h 91% 0.00in /  0mm 0 W/m2
02:50 46.8 °F /  8.2 °C 44.3 °F /  6.8 °C 30.00in /  1015.8hPa West 2mph /  3.2km/h 3mph /  4.8km/h 91% 0.00in /  0mm 0 W/m2
03:00 46.6 °F /  8.1 °C 44.1 °F /  6.7 °C 30.01in /  1016.1hPa WNW 1mph /  1.6km/h 3mph /  4.8km/h 91% 0.00in /  0mm 0 W/m2
03:10 46.4 °F /  8 °C 43.9 °F /  6.6 °C 30.00in /  1015.8hPa Calm   2mph /  3.2km/h 91% 0.00in /  0mm 0 W/m2
03:20 46.3 °F /  7.9 °C 43.8 °F /  6.6 °C 30.00in /  1015.8hPa WNW 1mph /  1.6km/h 2mph /  3.2km/h 91% 0.00in /  0mm 0 W/m2
03:30 46.2 °F /  7.9 °C 43.7 °F /  6.5 °C 29.99in /  1015.5hPa NW 1mph /  1.6km/h 2mph /  3.2km/h 91% 0.00in /  0mm 0 W/m2
03:40 46.4 °F /  8 °C 44.5 °F /  6.9 °C 29.99in /  1015.5hPa Calm   3mph /  4.8km/h 93% 0.00in /  0mm 0 W/m2
Knjazevac, Serbia
Compliments of Weather Underground - 2 mb